sensor_id;sensor_type;location;lat;lon;timestamp;temperature;humidity
16666;DHT22;8446;50.998;6.250;2023-04-25T00:00:55;7.00;99.90
16666;DHT22;8446;50.998;6.250;2023-04-25T00:03:22;6.90;99.90
16666;DHT22;8446;50.998;6.250;2023-04-25T00:05:50;6.80;99.90
16666;DHT22;8446;50.998;6.250;2023-04-25T00:08:18;6.80;99.90
16666;DHT22;8446;50.998;6.250;2023-04-25T00:10:46;6.70;99.90
16666;DHT22;8446;50.998;6.250;2023-04-25T00:13:14;6.60;99.90
16666;DHT22;8446;50.998;6.250;2023-04-25T00:15:43;6.50;99.90
16666;DHT22;8446;50.998;6.250;2023-04-25T00:18:09;6.40;99.90
16666;DHT22;8446;50.998;6.250;2023-04-25T00:20:36;6.40;99.90
16666;DHT22;8446;50.998;6.250;2023-04-25T00:23:03;6.30;99.90
16666;DHT22;8446;50.998;6.250;2023-04-25T00:25:30;6.30;99.90
16666;DHT22;8446;50.998;6.250;2023-04-25T00:27:58;6.20;99.90
16666;DHT22;8446;50.998;6.250;2023-04-25T00:30:25;6.30;99.90
16666;DHT22;8446;50.998;6.250;2023-04-25T00:32:52;6.30;99.90
16666;DHT22;8446;50.998;6.250;2023-04-25T00:35:18;6.20;99.90
16666;DHT22;8446;50.998;6.250;2023-04-25T00:37:46;6.30;99.90
16666;DHT22;8446;50.998;6.250;2023-04-25T00:40:13;6.30;99.90
16666;DHT22;8446;50.998;6.250;2023-04-25T00:42:40;6.30;99.90
16666;DHT22;8446;50.998;6.250;2023-04-25T00:45:13;6.30;99.90
16666;DHT22;8446;50.998;6.250;2023-04-25T00:47:40;6.30;99.90
16666;DHT22;8446;50.998;6.250;2023-04-25T00:50:08;6.30;99.90
16666;DHT22;8446;50.998;6.250;2023-04-25T00:52:35;6.30;99.90
16666;DHT22;8446;50.998;6.250;2023-04-25T00:55:02;6.20;99.90
16666;DHT22;8446;50.998;6.250;2023-04-25T00:57:29;6.20;99.90
16666;DHT22;8446;50.998;6.250;2023-04-25T00:59:56;6.20;99.90
16666;DHT22;8446;50.998;6.250;2023-04-25T01:02:25;6.20;99.90
16666;DHT22;8446;50.998;6.250;2023-04-25T01:04:52;6.20;99.90
16666;DHT22;8446;50.998;6.250;2023-04-25T01:07:19;6.20;99.90
16666;DHT22;8446;50.998;6.250;2023-04-25T01:09:46;6.10;99.90
16666;DHT22;8446;50.998;6.250;2023-04-25T01:12:13;6.10;99.90
16666;DHT22;8446;50.998;6.250;2023-04-25T01:14:41;6.10;99.90
16666;DHT22;8446;50.998;6.250;2023-04-25T01:17:08;6.10;99.90
16666;DHT22;8446;50.998;6.250;2023-04-25T01:19:36;6.10;99.90
16666;DHT22;8446;50.998;6.250;2023-04-25T01:22:05;6.10;99.90
16666;DHT22;8446;50.998;6.250;2023-04-25T01:24:32;6.10;99.90
16666;DHT22;8446;50.998;6.250;2023-04-25T01:27:00;6.10;99.90
16666;DHT22;8446;50.998;6.250;2023-04-25T01:29:28;6.10;99.90
16666;DHT22;8446;50.998;6.250;2023-04-25T01:31:55;6.10;99.90
16666;DHT22;8446;50.998;6.250;2023-04-25T01:34:23;6.20;99.90
16666;DHT22;8446;50.998;6.250;2023-04-25T01:36:51;6.20;99.90
16666;DHT22;8446;50.998;6.250;2023-04-25T01:39:19;6.20;99.90
16666;DHT22;8446;50.998;6.250;2023-04-25T01:41:47;6.20;99.90
16666;DHT22;8446;50.998;6.250;2023-04-25T01:44:14;6.30;99.90
16666;DHT22;8446;50.998;6.250;2023-04-25T01:46:41;6.30;99.90
16666;DHT22;8446;50.998;6.250;2023-04-25T01:49:08;6.40;99.90
16666;DHT22;8446;50.998;6.250;2023-04-25T01:51:35;6.30;99.90
16666;DHT22;8446;50.998;6.250;2023-04-25T01:54:02;6.40;99.90
16666;DHT22;8446;50.998;6.250;2023-04-25T01:56:32;6.40;99.90
16666;DHT22;8446;50.998;6.250;2023-04-25T01:58:59;6.40;99.90
16666;DHT22;8446;50.998;6.250;2023-04-25T02:01:26;6.40;99.90
16666;DHT22;8446;50.998;6.250;2023-04-25T02:03:53;6.40;99.90
16666;DHT22;8446;50.998;6.250;2023-04-25T02:06:19;6.40;99.90
16666;DHT22;8446;50.998;6.250;2023-04-25T02:08:46;6.40;99.90
16666;DHT22;8446;50.998;6.250;2023-04-25T02:11:13;6.40;99.90
16666;DHT22;8446;50.998;6.250;2023-04-25T02:13:41;6.50;99.90
16666;DHT22;8446;50.998;6.250;2023-04-25T02:16:08;6.50;99.90
16666;DHT22;8446;50.998;6.250;2023-04-25T02:18:35;6.50;99.90
16666;DHT22;8446;50.998;6.250;2023-04-25T02:21:03;6.50;99.90
16666;DHT22;8446;50.998;6.250;2023-04-25T02:23:30;6.50;99.90
16666;DHT22;8446;50.998;6.250;2023-04-25T02:25:57;6.50;99.90
16666;DHT22;8446;50.998;6.250;2023-04-25T02:28:24;6.50;99.90
16666;DHT22;8446;50.998;6.250;2023-04-25T02:30:52;6.50;99.90
16666;DHT22;8446;50.998;6.250;2023-04-25T02:33:19;6.50;99.90
16666;DHT22;8446;50.998;6.250;2023-04-25T02:35:46;6.50;99.90
16666;DHT22;8446;50.998;6.250;2023-04-25T02:38:13;6.50;99.90
16666;DHT22;8446;50.998;6.250;2023-04-25T02:40:40;6.40;99.90
16666;DHT22;8446;50.998;6.250;2023-04-25T02:43:07;6.50;99.90
16666;DHT22;8446;50.998;6.250;2023-04-25T02:45:34;6.40;99.90
16666;DHT22;8446;50.998;6.250;2023-04-25T02:48:03;6.50;99.90
16666;DHT22;8446;50.998;6.250;2023-04-25T02:50:29;6.50;99.90
16666;DHT22;8446;50.998;6.250;2023-04-25T02:52:56;6.50;99.90
16666;DHT22;8446;50.998;6.250;2023-04-25T02:55:23;6.50;99.90
16666;DHT22;8446;50.998;6.250;2023-04-25T02:57:50;6.50;99.90
16666;DHT22;8446;50.998;6.250;2023-04-25T03:00:16;6.60;99.90
16666;DHT22;8446;50.998;6.250;2023-04-25T03:02:43;6.60;99.90
16666;DHT22;8446;50.998;6.250;2023-04-25T03:05:11;6.60;99.90
16666;DHT22;8446;50.998;6.250;2023-04-25T03:07:38;6.60;99.90
16666;DHT22;8446;50.998;6.250;2023-04-25T03:10:06;6.60;99.90
16666;DHT22;8446;50.998;6.250;2023-04-25T03:12:33;6.60;99.90
16666;DHT22;8446;50.998;6.250;2023-04-25T03:15:00;6.60;99.90
16666;DHT22;8446;50.998;6.250;2023-04-25T03:17:27;6.60;99.90
16666;DHT22;8446;50.998;6.250;2023-04-25T03:19:54;6.60;99.90
16666;DHT22;8446;50.998;6.250;2023-04-25T03:22:23;6.50;99.90
16666;DHT22;8446;50.998;6.250;2023-04-25T03:24:50;6.50;99.90
16666;DHT22;8446;50.998;6.250;2023-04-25T03:27:17;6.50;99.90
16666;DHT22;8446;50.998;6.250;2023-04-25T03:29:44;6.50;99.90
16666;DHT22;8446;50.998;6.250;2023-04-25T03:32:10;6.50;99.90
16666;DHT22;8446;50.998;6.250;2023-04-25T03:34:37;6.50;99.90
16666;DHT22;8446;50.998;6.250;2023-04-25T03:37:04;6.50;99.90
16666;DHT22;8446;50.998;6.250;2023-04-25T03:39:32;6.40;99.90
16666;DHT22;8446;50.998;6.250;2023-04-25T03:41:59;6.40;99.90
16666;DHT22;8446;50.998;6.250;2023-04-25T03:44:26;6.40;99.90
16666;DHT22;8446;50.998;6.250;2023-04-25T03:46:53;6.40;99.90
16666;DHT22;8446;50.998;6.250;2023-04-25T03:49:20;6.40;99.90
16666;DHT22;8446;50.998;6.250;2023-04-25T03:51:46;6.40;99.90
16666;DHT22;8446;50.998;6.250;2023-04-25T03:54:13;6.30;99.90
16666;DHT22;8446;50.998;6.250;2023-04-25T03:56:41;6.40;99.90
16666;DHT22;8446;50.998;6.250;2023-04-25T03:59:08;6.40;99.90
16666;DHT22;8446;50.998;6.250;2023-04-25T04:01:35;6.40;99.90
16666;DHT22;8446;50.998;6.250;2023-04-25T04:04:02;6.40;99.90
16666;DHT22;8446;50.998;6.250;2023-04-25T04:06:29;6.40;99.90
16666;DHT22;8446;50.998;6.250;2023-04-25T04:08:55;6.40;99.90
16666;DHT22;8446;50.998;6.250;2023-04-25T04:11:22;6.40;99.90
16666;DHT22;8446;50.998;6.250;2023-04-25T04:13:51;6.40;99.90
16666;DHT22;8446;50.998;6.250;2023-04-25T04:16:17;6.40;99.90
16666;DHT22;8446;50.998;6.250;2023-04-25T04:18:45;6.40;99.90
16666;DHT22;8446;50.998;6.250;2023-04-25T04:21:12;6.40;99.90
16666;DHT22;8446;50.998;6.250;2023-04-25T04:23:39;6.40;99.90
16666;DHT22;8446;50.998;6.250;2023-04-25T04:26:05;6.40;99.90
16666;DHT22;8446;50.998;6.250;2023-04-25T04:28:34;6.40;99.90
16666;DHT22;8446;50.998;6.250;2023-04-25T04:31:02;6.40;99.90
16666;DHT22;8446;50.998;6.250;2023-04-25T04:33:29;6.40;99.90
16666;DHT22;8446;50.998;6.250;2023-04-25T04:35:57;6.40;99.90
16666;DHT22;8446;50.998;6.250;2023-04-25T04:38:24;6.40;99.90
16666;DHT22;8446;50.998;6.250;2023-04-25T04:40:51;6.50;99.90
16666;DHT22;8446;50.998;6.250;2023-04-25T04:43:19;6.50;99.90
16666;DHT22;8446;50.998;6.250;2023-04-25T04:45:45;6.40;99.90
16666;DHT22;8446;50.998;6.250;2023-04-25T04:48:14;6.50;99.90
16666;DHT22;8446;50.998;6.250;2023-04-25T04:50:42;6.50;99.90
16666;DHT22;8446;50.998;6.250;2023-04-25T04:53:10;6.50;99.90
16666;DHT22;8446;50.998;6.250;2023-04-25T04:55:37;6.40;99.90
16666;DHT22;8446;50.998;6.250;2023-04-25T04:58:04;6.50;99.90
16666;DHT22;8446;50.998;6.250;2023-04-25T05:00:31;6.50;99.90
16666;DHT22;8446;50.998;6.250;2023-04-25T05:02:58;6.50;99.90
16666;DHT22;8446;50.998;6.250;2023-04-25T05:05:26;6.50;99.90
16666;DHT22;8446;50.998;6.250;2023-04-25T05:07:53;6.50;99.90
16666;DHT22;8446;50.998;6.250;2023-04-25T05:10:20;6.50;99.90
16666;DHT22;8446;50.998;6.250;2023-04-25T05:12:47;6.60;99.90
16666;DHT22;8446;50.998;6.250;2023-04-25T05:15:13;6.60;99.90
16666;DHT22;8446;50.998;6.250;2023-04-25T05:17:40;6.70;99.90
16666;DHT22;8446;50.998;6.250;2023-04-25T05:20:08;6.70;99.90
16666;DHT22;8446;50.998;6.250;2023-04-25T05:22:36;6.70;99.90
16666;DHT22;8446;50.998;6.250;2023-04-25T05:25:04;6.80;99.90
16666;DHT22;8446;50.998;6.250;2023-04-25T05:27:31;6.90;99.90
16666;DHT22;8446;50.998;6.250;2023-04-25T05:29:57;6.90;99.90
16666;DHT22;8446;50.998;6.250;2023-04-25T05:32:25;7.00;99.90
16666;DHT22;8446;50.998;6.250;2023-04-25T05:34:52;7.00;99.90
16666;DHT22;8446;50.998;6.250;2023-04-25T05:37:19;7.10;99.90
16666;DHT22;8446;50.998;6.250;2023-04-25T05:39:47;7.10;99.90
16666;DHT22;8446;50.998;6.250;2023-04-25T05:42:14;7.20;99.90
16666;DHT22;8446;50.998;6.250;2023-04-25T05:44:41;7.20;99.90
16666;DHT22;8446;50.998;6.250;2023-04-25T05:47:07;7.20;99.90
16666;DHT22;8446;50.998;6.250;2023-04-25T05:49:34;7.30;99.90
16666;DHT22;8446;50.998;6.250;2023-04-25T05:52:01;7.40;99.90
16666;DHT22;8446;50.998;6.250;2023-04-25T05:54:28;7.40;99.90
16666;DHT22;8446;50.998;6.250;2023-04-25T05:56:57;7.50;99.90
16666;DHT22;8446;50.998;6.250;2023-04-25T05:59:24;7.50;99.90
16666;DHT22;8446;50.998;6.250;2023-04-25T06:01:51;7.60;99.90
16666;DHT22;8446;50.998;6.250;2023-04-25T06:04:18;7.60;99.90
16666;DHT22;8446;50.998;6.250;2023-04-25T06:06:44;7.60;99.90
16666;DHT22;8446;50.998;6.250;2023-04-25T06:09:11;7.60;99.90
16666;DHT22;8446;50.998;6.250;2023-04-25T06:11:41;7.70;99.90
16666;DHT22;8446;50.998;6.250;2023-04-25T06:14:09;7.70;99.90
16666;DHT22;8446;50.998;6.250;2023-04-25T06:16:35;7.70;99.90
16666;DHT22;8446;50.998;6.250;2023-04-25T06:19:02;7.80;99.90
16666;DHT22;8446;50.998;6.250;2023-04-25T06:21:29;7.70;99.90
16666;DHT22;8446;50.998;6.250;2023-04-25T06:23:57;7.70;99.90
16666;DHT22;8446;50.998;6.250;2023-04-25T06:26:24;7.80;99.90
16666;DHT22;8446;50.998;6.250;2023-04-25T06:28:51;7.80;99.90
16666;DHT22;8446;50.998;6.250;2023-04-25T06:31:19;7.80;99.90
16666;DHT22;8446;50.998;6.250;2023-04-25T06:33:46;7.80;99.90
16666;DHT22;8446;50.998;6.250;2023-04-25T06:36:13;7.80;99.90
16666;DHT22;8446;50.998;6.250;2023-04-25T06:38:40;7.90;99.90
16666;DHT22;8446;50.998;6.250;2023-04-25T06:41:07;8.00;99.90
16666;DHT22;8446;50.998;6.250;2023-04-25T06:43:34;8.10;99.90
16666;DHT22;8446;50.998;6.250;2023-04-25T06:46:01;8.20;99.90
16666;DHT22;8446;50.998;6.250;2023-04-25T06:48:29;8.30;99.90
16666;DHT22;8446;50.998;6.250;2023-04-25T06:50:55;8.40;99.90
16666;DHT22;8446;50.998;6.250;2023-04-25T06:53:22;8.50;99.90
16666;DHT22;8446;50.998;6.250;2023-04-25T06:55:49;8.50;99.90
16666;DHT22;8446;50.998;6.250;2023-04-25T06:58:16;8.50;99.90
16666;DHT22;8446;50.998;6.250;2023-04-25T07:00:43;8.60;99.90
16666;DHT22;8446;50.998;6.250;2023-04-25T07:03:10;8.60;99.90
16666;DHT22;8446;50.998;6.250;2023-04-25T07:05:38;8.60;99.90
16666;DHT22;8446;50.998;6.250;2023-04-25T07:08:05;8.60;99.90
16666;DHT22;8446;50.998;6.250;2023-04-25T07:10:32;8.70;99.90
16666;DHT22;8446;50.998;6.250;2023-04-25T07:12:59;8.80;99.90
16666;DHT22;8446;50.998;6.250;2023-04-25T07:15:25;8.90;99.90
16666;DHT22;8446;50.998;6.250;2023-04-25T07:17:52;9.00;99.90
16666;DHT22;8446;50.998;6.250;2023-04-25T07:20:19;9.00;99.90
16666;DHT22;8446;50.998;6.250;2023-04-25T07:22:47;9.10;99.90
16666;DHT22;8446;50.998;6.250;2023-04-25T07:25:15;9.20;99.90
16666;DHT22;8446;50.998;6.250;2023-04-25T07:27:42;9.30;99.90
16666;DHT22;8446;50.998;6.250;2023-04-25T07:30:10;9.50;99.90
16666;DHT22;8446;50.998;6.250;2023-04-25T07:32:38;9.50;99.90
16666;DHT22;8446;50.998;6.250;2023-04-25T07:35:05;9.70;99.90
16666;DHT22;8446;50.998;6.250;2023-04-25T07:37:33;9.80;99.90
16666;DHT22;8446;50.998;6.250;2023-04-25T07:40:01;9.70;99.90
16666;DHT22;8446;50.998;6.250;2023-04-25T07:42:29;9.80;99.90
16666;DHT22;8446;50.998;6.250;2023-04-25T07:44:56;9.80;99.90
16666;DHT22;8446;50.998;6.250;2023-04-25T07:47:23;9.90;99.90
16666;DHT22;8446;50.998;6.250;2023-04-25T07:49:50;9.90;99.90
16666;DHT22;8446;50.998;6.250;2023-04-25T07:52:17;10.00;99.90
16666;DHT22;8446;50.998;6.250;2023-04-25T07:54:43;9.80;99.90
16666;DHT22;8446;50.998;6.250;2023-04-25T07:57:12;9.90;99.90
16666;DHT22;8446;50.998;6.250;2023-04-25T07:59:39;10.10;99.90
16666;DHT22;8446;50.998;6.250;2023-04-25T08:02:06;10.20;99.90
16666;DHT22;8446;50.998;6.250;2023-04-25T08:04:33;10.10;99.90
16666;DHT22;8446;50.998;6.250;2023-04-25T08:07:00;10.30;99.90
16666;DHT22;8446;50.998;6.250;2023-04-25T08:09:27;10.30;99.90
16666;DHT22;8446;50.998;6.250;2023-04-25T08:11:54;10.40;99.90
16666;DHT22;8446;50.998;6.250;2023-04-25T08:14:22;10.20;99.90
16666;DHT22;8446;50.998;6.250;2023-04-25T08:16:49;10.20;99.90
16666;DHT22;8446;50.998;6.250;2023-04-25T08:19:16;10.30;99.90
16666;DHT22;8446;50.998;6.250;2023-04-25T08:21:43;10.20;99.90
16666;DHT22;8446;50.998;6.250;2023-04-25T08:24:10;10.30;99.90
16666;DHT22;8446;50.998;6.250;2023-04-25T08:26:37;10.20;99.90
16666;DHT22;8446;50.998;6.250;2023-04-25T08:29:04;10.20;99.90
16666;DHT22;8446;50.998;6.250;2023-04-25T08:31:33;10.40;99.90
16666;DHT22;8446;50.998;6.250;2023-04-25T08:34:00;10.60;99.90
16666;DHT22;8446;50.998;6.250;2023-04-25T08:36:26;10.60;99.90
16666;DHT22;8446;50.998;6.250;2023-04-25T08:38:54;10.80;99.90
16666;DHT22;8446;50.998;6.250;2023-04-25T08:41:21;10.80;99.90
16666;DHT22;8446;50.998;6.250;2023-04-25T08:43:49;10.80;99.90
16666;DHT22;8446;50.998;6.250;2023-04-25T08:46:18;11.00;99.90
16666;DHT22;8446;50.998;6.250;2023-04-25T08:48:47;10.90;99.90
16666;DHT22;8446;50.998;6.250;2023-04-25T08:51:18;11.10;99.90
16666;DHT22;8446;50.998;6.250;2023-04-25T08:53:49;11.20;99.90
16666;DHT22;8446;50.998;6.250;2023-04-25T08:56:17;11.50;99.90
16666;DHT22;8446;50.998;6.250;2023-04-25T08:58:48;11.60;99.90
16666;DHT22;8446;50.998;6.250;2023-04-25T09:01:15;11.70;99.90
16666;DHT22;8446;50.998;6.250;2023-04-25T09:03:42;11.90;99.90
16666;DHT22;8446;50.998;6.250;2023-04-25T09:06:11;11.90;99.90
16666;DHT22;8446;50.998;6.250;2023-04-25T09:08:38;11.90;99.90
16666;DHT22;8446;50.998;6.250;2023-04-25T09:11:06;11.90;99.90
16666;DHT22;8446;50.998;6.250;2023-04-25T09:13:33;11.90;99.90
16666;DHT22;8446;50.998;6.250;2023-04-25T09:16:00;11.90;99.90
16666;DHT22;8446;50.998;6.250;2023-04-25T09:18:28;12.00;99.90
16666;DHT22;8446;50.998;6.250;2023-04-25T09:20:57;12.00;99.90
16666;DHT22;8446;50.998;6.250;2023-04-25T09:23:26;12.20;99.90
16666;DHT22;8446;50.998;6.250;2023-04-25T09:25:53;12.40;99.90
16666;DHT22;8446;50.998;6.250;2023-04-25T09:28:23;12.10;99.90
16666;DHT22;8446;50.998;6.250;2023-04-25T09:30:55;12.20;99.90
16666;DHT22;8446;50.998;6.250;2023-04-25T09:33:27;12.20;99.90
16666;DHT22;8446;50.998;6.250;2023-04-25T09:36:02;12.30;99.90
16666;DHT22;8446;50.998;6.250;2023-04-25T09:38:32;12.40;99.90
16666;DHT22;8446;50.998;6.250;2023-04-25T09:40:59;12.60;99.90
16666;DHT22;8446;50.998;6.250;2023-04-25T09:43:27;13.00;99.90
16666;DHT22;8446;50.998;6.250;2023-04-25T09:45:54;13.20;99.90
16666;DHT22;8446;50.998;6.250;2023-04-25T09:48:25;13.20;99.90
16666;DHT22;8446;50.998;6.250;2023-04-25T09:51:07;12.80;99.90
16666;DHT22;8446;50.998;6.250;2023-04-25T09:53:37;12.80;99.90
16666;DHT22;8446;50.998;6.250;2023-04-25T09:56:04;12.60;99.90
16666;DHT22;8446;50.998;6.250;2023-04-25T09:58:32;12.30;99.90
16666;DHT22;8446;50.998;6.250;2023-04-25T10:01:01;12.30;99.90
16666;DHT22;8446;50.998;6.250;2023-04-25T10:03:30;12.40;99.90
16666;DHT22;8446;50.998;6.250;2023-04-25T10:05:59;12.40;99.90
16666;DHT22;8446;50.998;6.250;2023-04-25T10:08:31;12.10;99.90
16666;DHT22;8446;50.998;6.250;2023-04-25T10:11:00;11.90;99.90
16666;DHT22;8446;50.998;6.250;2023-04-25T10:13:29;11.80;99.90
16666;DHT22;8446;50.998;6.250;2023-04-25T10:15:57;11.80;99.90
16666;DHT22;8446;50.998;6.250;2023-04-25T10:18:25;11.80;99.90
16666;DHT22;8446;50.998;6.250;2023-04-25T10:20:53;11.80;99.90
16666;DHT22;8446;50.998;6.250;2023-04-25T10:23:20;12.30;99.90
16666;DHT22;8446;50.998;6.250;2023-04-25T10:25:47;12.90;99.90
16666;DHT22;8446;50.998;6.250;2023-04-25T10:28:16;13.10;99.90
16666;DHT22;8446;50.998;6.250;2023-04-25T10:30:57;13.30;99.90
16666;DHT22;8446;50.998;6.250;2023-04-25T10:33:32;13.50;99.90
16666;DHT22;8446;50.998;6.250;2023-04-25T10:36:08;13.60;99.90
16666;DHT22;8446;50.998;6.250;2023-04-25T10:38:36;14.00;99.90
16666;DHT22;8446;50.998;6.250;2023-04-25T10:41:04;14.10;99.90
16666;DHT22;8446;50.998;6.250;2023-04-25T10:43:36;14.30;99.90
16666;DHT22;8446;50.998;6.250;2023-04-25T10:46:16;14.30;99.90
16666;DHT22;8446;50.998;6.250;2023-04-25T10:48:50;14.10;99.90
16666;DHT22;8446;50.998;6.250;2023-04-25T10:51:19;13.70;99.90
16666;DHT22;8446;50.998;6.250;2023-04-25T10:53:47;13.20;99.90
16666;DHT22;8446;50.998;6.250;2023-04-25T10:58:50;12.60;99.90
16666;DHT22;8446;50.998;6.250;2023-04-25T11:01:20;12.40;99.90
16666;DHT22;8446;50.998;6.250;2023-04-25T11:03:47;12.40;99.90
16666;DHT22;8446;50.998;6.250;2023-04-25T11:06:23;12.40;99.90
16666;DHT22;8446;50.998;6.250;2023-04-25T11:08:57;12.60;99.90
16666;DHT22;8446;50.998;6.250;2023-04-25T11:11:26;12.90;99.90
16666;DHT22;8446;50.998;6.250;2023-04-25T11:13:57;13.30;99.90
16666;DHT22;8446;50.998;6.250;2023-04-25T11:16:24;13.50;99.90
16666;DHT22;8446;50.998;6.250;2023-04-25T11:18:51;13.50;99.90
16666;DHT22;8446;50.998;6.250;2023-04-25T11:21:18;13.50;99.90
16666;DHT22;8446;50.998;6.250;2023-04-25T11:23:45;13.40;99.90
16666;DHT22;8446;50.998;6.250;2023-04-25T11:26:13;13.70;99.90
16666;DHT22;8446;50.998;6.250;2023-04-25T11:28:40;14.30;99.90
16666;DHT22;8446;50.998;6.250;2023-04-25T11:31:08;14.60;99.90
16666;DHT22;8446;50.998;6.250;2023-04-25T11:33:36;14.60;99.90
16666;DHT22;8446;50.998;6.250;2023-04-25T11:36:04;14.40;99.90
16666;DHT22;8446;50.998;6.250;2023-04-25T11:38:40;14.10;99.90
16666;DHT22;8446;50.998;6.250;2023-04-25T11:41:07;13.60;99.90
16666;DHT22;8446;50.998;6.250;2023-04-25T11:43:34;14.00;99.90
16666;DHT22;8446;50.998;6.250;2023-04-25T11:46:01;14.50;99.90
16666;DHT22;8446;50.998;6.250;2023-04-25T11:48:37;14.50;99.90
16666;DHT22;8446;50.998;6.250;2023-04-25T11:51:04;14.50;99.90
16666;DHT22;8446;50.998;6.250;2023-04-25T11:53:31;15.00;99.90
16666;DHT22;8446;50.998;6.250;2023-04-25T11:56:00;14.90;99.90
16666;DHT22;8446;50.998;6.250;2023-04-25T11:58:28;15.40;99.90
16666;DHT22;8446;50.998;6.250;2023-04-25T12:00:56;15.90;99.90
16666;DHT22;8446;50.998;6.250;2023-04-25T12:03:24;16.10;98.60
16666;DHT22;8446;50.998;6.250;2023-04-25T12:06:03;16.10;95.90
16666;DHT22;8446;50.998;6.250;2023-04-25T12:08:30;15.50;96.70
16666;DHT22;8446;50.998;6.250;2023-04-25T12:10:58;15.00;96.20
16666;DHT22;8446;50.998;6.250;2023-04-25T12:13:25;14.70;99.20
16666;DHT22;8446;50.998;6.250;2023-04-25T12:15:54;14.20;99.90
16666;DHT22;8446;50.998;6.250;2023-04-25T12:18:24;14.10;99.90
16666;DHT22;8446;50.998;6.250;2023-04-25T12:20:53;13.70;99.90
16666;DHT22;8446;50.998;6.250;2023-04-25T12:23:26;13.60;99.90
16666;DHT22;8446;50.998;6.250;2023-04-25T12:25:56;13.50;99.90
16666;DHT22;8446;50.998;6.250;2023-04-25T12:28:26;13.60;99.90
16666;DHT22;8446;50.998;6.250;2023-04-25T12:30:54;13.60;99.90
16666;DHT22;8446;50.998;6.250;2023-04-25T12:33:21;13.60;99.90
16666;DHT22;8446;50.998;6.250;2023-04-25T12:35:48;13.50;99.90
16666;DHT22;8446;50.998;6.250;2023-04-25T12:38:21;13.40;99.90
16666;DHT22;8446;50.998;6.250;2023-04-25T12:40:49;13.40;99.90
16666;DHT22;8446;50.998;6.250;2023-04-25T12:43:16;13.50;99.90
16666;DHT22;8446;50.998;6.250;2023-04-25T12:45:43;13.60;99.90
16666;DHT22;8446;50.998;6.250;2023-04-25T12:48:10;13.70;99.90
16666;DHT22;8446;50.998;6.250;2023-04-25T12:50:37;13.90;99.90
16666;DHT22;8446;50.998;6.250;2023-04-25T12:53:04;14.20;99.90
16666;DHT22;8446;50.998;6.250;2023-04-25T12:55:30;14.30;99.90
16666;DHT22;8446;50.998;6.250;2023-04-25T12:57:58;14.70;99.90
16666;DHT22;8446;50.998;6.250;2023-04-25T13:00:25;15.40;99.90
16666;DHT22;8446;50.998;6.250;2023-04-25T13:02:59;15.60;98.50
16666;DHT22;8446;50.998;6.250;2023-04-25T13:05:26;15.10;97.80
16666;DHT22;8446;50.998;6.250;2023-04-25T13:07:53;14.60;99.90
16666;DHT22;8446;50.998;6.250;2023-04-25T13:10:20;14.30;99.90
16666;DHT22;8446;50.998;6.250;2023-04-25T13:12:47;14.10;99.90
16666;DHT22;8446;50.998;6.250;2023-04-25T13:15:15;13.70;99.90
16666;DHT22;8446;50.998;6.250;2023-04-25T13:17:42;13.80;99.90
16666;DHT22;8446;50.998;6.250;2023-04-25T13:20:10;13.40;99.80
16666;DHT22;8446;50.998;6.250;2023-04-25T13:22:37;12.90;99.40
16666;DHT22;8446;50.998;6.250;2023-04-25T13:25:06;12.90;99.90
16666;DHT22;8446;50.998;6.250;2023-04-25T13:27:33;12.70;99.90
16666;DHT22;8446;50.998;6.250;2023-04-25T13:30:03;12.40;99.90
16666;DHT22;8446;50.998;6.250;2023-04-25T13:32:34;12.30;99.90
16666;DHT22;8446;50.998;6.250;2023-04-25T13:35:01;12.30;99.90
16666;DHT22;8446;50.998;6.250;2023-04-25T13:37:28;12.10;99.90
16666;DHT22;8446;50.998;6.250;2023-04-25T13:39:58;12.00;99.90
16666;DHT22;8446;50.998;6.250;2023-04-25T13:42:25;12.00;99.90
16666;DHT22;8446;50.998;6.250;2023-04-25T13:44:52;12.10;99.90
16666;DHT22;8446;50.998;6.250;2023-04-25T13:47:18;12.00;99.90
16666;DHT22;8446;50.998;6.250;2023-04-25T13:49:47;11.90;99.90
16666;DHT22;8446;50.998;6.250;2023-04-25T13:52:13;11.80;99.90
16666;DHT22;8446;50.998;6.250;2023-04-25T13:54:40;11.80;99.90
16666;DHT22;8446;50.998;6.250;2023-04-25T13:57:07;11.90;99.90
16666;DHT22;8446;50.998;6.250;2023-04-25T13:59:34;12.10;99.90
16666;DHT22;8446;50.998;6.250;2023-04-25T14:02:01;12.10;99.90
16666;DHT22;8446;50.998;6.250;2023-04-25T14:04:28;12.50;99.90
16666;DHT22;8446;50.998;6.250;2023-04-25T14:06:56;12.80;99.90
16666;DHT22;8446;50.998;6.250;2023-04-25T14:09:23;13.30;99.90
16666;DHT22;8446;50.998;6.250;2023-04-25T14:11:51;13.80;99.90
16666;DHT22;8446;50.998;6.250;2023-04-25T14:14:18;14.70;99.90
16666;DHT22;8446;50.998;6.250;2023-04-25T14:16:45;15.20;98.70
16666;DHT22;8446;50.998;6.250;2023-04-25T14:19:13;15.20;97.90
16666;DHT22;8446;50.998;6.250;2023-04-25T14:21:40;15.00;97.00
16666;DHT22;8446;50.998;6.250;2023-04-25T14:24:09;14.90;98.30
16666;DHT22;8446;50.998;6.250;2023-04-25T14:26:37;15.60;98.20
16666;DHT22;8446;50.998;6.250;2023-04-25T14:29:04;16.50;97.50
16666;DHT22;8446;50.998;6.250;2023-04-25T14:31:32;17.50;95.30
16666;DHT22;8446;50.998;6.250;2023-04-25T14:33:59;18.50;93.40
16666;DHT22;8446;50.998;6.250;2023-04-25T14:36:26;19.30;91.20
16666;DHT22;8446;50.998;6.250;2023-04-25T14:38:54;19.90;84.70
16666;DHT22;8446;50.998;6.250;2023-04-25T14:41:22;20.30;83.20
16666;DHT22;8446;50.998;6.250;2023-04-25T14:43:50;20.50;80.90
16666;DHT22;8446;50.998;6.250;2023-04-25T14:46:18;21.10;82.30
16666;DHT22;8446;50.998;6.250;2023-04-25T14:48:46;21.10;74.00
16666;DHT22;8446;50.998;6.250;2023-04-25T14:51:13;21.30;69.90
16666;DHT22;8446;50.998;6.250;2023-04-25T14:53:39;21.10;70.60
16666;DHT22;8446;50.998;6.250;2023-04-25T14:56:07;21.10;72.10
16666;DHT22;8446;50.998;6.250;2023-04-25T14:58:35;20.80;70.20
16666;DHT22;8446;50.998;6.250;2023-04-25T15:01:03;20.10;68.60
16666;DHT22;8446;50.998;6.250;2023-04-25T15:03:30;19.00;71.80
16666;DHT22;8446;50.998;6.250;2023-04-25T15:05:57;17.90;74.30
16666;DHT22;8446;50.998;6.250;2023-04-25T15:08:24;16.90;77.00
16666;DHT22;8446;50.998;6.250;2023-04-25T15:10:51;16.10;82.30
16666;DHT22;8446;50.998;6.250;2023-04-25T15:13:18;15.60;83.70
16666;DHT22;8446;50.998;6.250;2023-04-25T15:15:47;15.00;84.80
16666;DHT22;8446;50.998;6.250;2023-04-25T15:18:16;14.80;86.30
16666;DHT22;8446;50.998;6.250;2023-04-25T15:20:43;14.60;89.30
16666;DHT22;8446;50.998;6.250;2023-04-25T15:23:11;14.20;87.90
16666;DHT22;8446;50.998;6.250;2023-04-25T15:25:38;13.90;87.60
16666;DHT22;8446;50.998;6.250;2023-04-25T15:28:04;13.60;87.90
16666;DHT22;8446;50.998;6.250;2023-04-25T15:30:31;13.50;87.00
16666;DHT22;8446;50.998;6.250;2023-04-25T15:33:00;13.60;89.70
16666;DHT22;8446;50.998;6.250;2023-04-25T15:35:27;13.70;88.70
16666;DHT22;8446;50.998;6.250;2023-04-25T15:37:54;13.50;89.70
16666;DHT22;8446;50.998;6.250;2023-04-25T15:40:20;13.40;90.40
16666;DHT22;8446;50.998;6.250;2023-04-25T15:42:49;13.50;90.60
16666;DHT22;8446;50.998;6.250;2023-04-25T15:45:17;14.30;90.20
16666;DHT22;8446;50.998;6.250;2023-04-25T15:47:45;15.10;88.10
16666;DHT22;8446;50.998;6.250;2023-04-25T15:50:13;16.10;90.20
16666;DHT22;8446;50.998;6.250;2023-04-25T15:52:40;17.00;84.40
16666;DHT22;8446;50.998;6.250;2023-04-25T15:55:13;17.80;81.30
16666;DHT22;8446;50.998;6.250;2023-04-25T15:57:41;18.00;83.60
16666;DHT22;8446;50.998;6.250;2023-04-25T16:00:09;18.60;78.10